sensor_id;sensor_type;location;lat;lon;timestamp;P1;durP1;ratioP1;P2;durP2;ratioP2
9720;SDS011;4899;42.644;23.366;2024-02-21T00:00:28;6.67;;;5.50;;
9720;SDS011;4899;42.644;23.366;2024-02-21T00:02:53;6.10;;;5.50;;
9720;SDS011;4899;42.644;23.366;2024-02-21T00:05:18;5.93;;;5.43;;
9720;SDS011;4899;42.644;23.366;2024-02-21T00:07:43;5.37;;;4.87;;
9720;SDS011;4899;42.644;23.366;2024-02-21T00:10:09;5.80;;;5.20;;
9720;SDS011;4899;42.644;23.366;2024-02-21T00:12:34;6.27;;;5.67;;
9720;SDS011;4899;42.644;23.366;2024-02-21T00:15:00;5.77;;;5.20;;
9720;SDS011;4899;42.644;23.366;2024-02-21T00:17:25;5.30;;;4.80;;
9720;SDS011;4899;42.644;23.366;2024-02-21T00:19:51;5.10;;;4.60;;
9720;SDS011;4899;42.644;23.366;2024-02-21T00:22:16;6.53;;;5.40;;
9720;SDS011;4899;42.644;23.366;2024-02-21T00:24:42;6.00;;;5.50;;
9720;SDS011;4899;42.644;23.366;2024-02-21T00:27:07;6.03;;;5.43;;
9720;SDS011;4899;42.644;23.366;2024-02-21T00:29:32;5.77;;;5.27;;
9720;SDS011;4899;42.644;23.366;2024-02-21T00:31:59;6.00;;;5.40;;
9720;SDS011;4899;42.644;23.366;2024-02-21T00:34:24;5.47;;;4.97;;
9720;SDS011;4899;42.644;23.366;2024-02-21T00:36:50;5.77;;;5.27;;
9720;SDS011;4899;42.644;23.366;2024-02-21T00:39:15;6.13;;;5.50;;
9720;SDS011;4899;42.644;23.366;2024-02-21T00:41:40;5.70;;;5.20;;
9720;SDS011;4899;42.644;23.366;2024-02-21T00:44:06;5.57;;;4.53;;
9720;SDS011;4899;42.644;23.366;2024-02-21T00:46:31;5.27;;;4.80;;
9720;SDS011;4899;42.644;23.366;2024-02-21T00:48:56;5.40;;;4.90;;
9720;SDS011;4899;42.644;23.366;2024-02-21T00:51:22;6.03;;;5.43;;
9720;SDS011;4899;42.644;23.366;2024-02-21T00:53:47;5.57;;;5.07;;
9720;SDS011;4899;42.644;23.366;2024-02-21T00:56:12;6.00;;;5.50;;
9720;SDS011;4899;42.644;23.366;2024-02-21T00:58:37;6.70;;;6.00;;
9720;SDS011;4899;42.644;23.366;2024-02-21T01:01:03;5.97;;;5.20;;
9720;SDS011;4899;42.644;23.366;2024-02-21T01:03:28;5.53;;;5.03;;
9720;SDS011;4899;42.644;23.366;2024-02-21T01:05:53;6.23;;;5.67;;
9720;SDS011;4899;42.644;23.366;2024-02-21T01:08:19;6.43;;;5.83;;
9720;SDS011;4899;42.644;23.366;2024-02-21T01:10:44;5.83;;;5.30;;
9720;SDS011;4899;42.644;23.366;2024-02-21T01:13:09;5.90;;;5.30;;
9720;SDS011;4899;42.644;23.366;2024-02-21T01:15:35;5.60;;;5.10;;
9720;SDS011;4899;42.644;23.366;2024-02-21T01:18:00;6.23;;;5.67;;
9720;SDS011;4899;42.644;23.366;2024-02-21T01:20:26;6.23;;;5.63;;
9720;SDS011;4899;42.644;23.366;2024-02-21T01:22:51;5.60;;;5.10;;
9720;SDS011;4899;42.644;23.366;2024-02-21T01:25:16;6.97;;;6.30;;
9720;SDS011;4899;42.644;23.366;2024-02-21T01:27:42;6.20;;;5.70;;
9720;SDS011;4899;42.644;23.366;2024-02-21T01:30:07;6.47;;;5.87;;
9720;SDS011;4899;42.644;23.366;2024-02-21T01:32:33;6.33;;;5.73;;
9720;SDS011;4899;42.644;23.366;2024-02-21T01:34:58;6.43;;;5.83;;
9720;SDS011;4899;42.644;23.366;2024-02-21T01:37:23;6.50;;;5.73;;
9720;SDS011;4899;42.644;23.366;2024-02-21T01:39:49;7.03;;;6.33;;
9720;SDS011;4899;42.644;23.366;2024-02-21T01:42:15;6.73;;;6.03;;
9720;SDS011;4899;42.644;23.366;2024-02-21T01:44:40;6.37;;;5.83;;
9720;SDS011;4899;42.644;23.366;2024-02-21T01:47:06;7.13;;;6.33;;
9720;SDS011;4899;42.644;23.366;2024-02-21T01:49:32;6.93;;;6.03;;
9720;SDS011;4899;42.644;23.366;2024-02-21T01:51:57;6.17;;;5.57;;
9720;SDS011;4899;42.644;23.366;2024-02-21T01:54:23;7.10;;;6.40;;
9720;SDS011;4899;42.644;23.366;2024-02-21T01:56:48;6.70;;;6.10;;
9720;SDS011;4899;42.644;23.366;2024-02-21T01:59:14;6.80;;;6.20;;
9720;SDS011;4899;42.644;23.366;2024-02-21T02:01:40;6.97;;;6.27;;
9720;SDS011;4899;42.644;23.366;2024-02-21T02:04:06;7.47;;;6.73;;
9720;SDS011;4899;42.644;23.366;2024-02-21T02:06:31;7.47;;;6.77;;
9720;SDS011;4899;42.644;23.366;2024-02-21T02:08:56;7.90;;;7.10;;
9720;SDS011;4899;42.644;23.366;2024-02-21T02:11:22;7.97;;;7.17;;
9720;SDS011;4899;42.644;23.366;2024-02-21T02:13:47;7.63;;;6.80;;
9720;SDS011;4899;42.644;23.366;2024-02-21T02:16:12;10.57;;;7.77;;
9720;SDS011;4899;42.644;23.366;2024-02-21T02:18:38;9.20;;;8.27;;
9720;SDS011;4899;42.644;23.366;2024-02-21T02:21:04;9.70;;;8.43;;
9720;SDS011;4899;42.644;23.366;2024-02-21T02:23:33;10.00;;;9.00;;
9720;SDS011;4899;42.644;23.366;2024-02-21T02:25:59;11.10;;;9.90;;
9720;SDS011;4899;42.644;23.366;2024-02-21T02:28:26;9.87;;;8.87;;
9720;SDS011;4899;42.644;23.366;2024-02-21T02:30:51;10.63;;;9.47;;
9720;SDS011;4899;42.644;23.366;2024-02-21T02:33:17;10.83;;;9.40;;
9720;SDS011;4899;42.644;23.366;2024-02-21T02:35:43;10.27;;;9.27;;
9720;SDS011;4899;42.644;23.366;2024-02-21T02:38:08;11.90;;;9.77;;
9720;SDS011;4899;42.644;23.366;2024-02-21T02:40:35;10.27;;;9.17;;
9720;SDS011;4899;42.644;23.366;2024-02-21T02:43:00;11.77;;;10.40;;
9720;SDS011;4899;42.644;23.366;2024-02-21T02:45:26;11.90;;;10.70;;
9720;SDS011;4899;42.644;23.366;2024-02-21T02:47:54;11.33;;;10.13;;
9720;SDS011;4899;42.644;23.366;2024-02-21T02:50:21;12.17;;;10.87;;
9720;SDS011;4899;42.644;23.366;2024-02-21T02:52:47;12.07;;;10.77;;
9720;SDS011;4899;42.644;23.366;2024-02-21T02:55:12;11.10;;;10.10;;
9720;SDS011;4899;42.644;23.366;2024-02-21T02:57:37;12.90;;;10.47;;
9720;SDS011;4899;42.644;23.366;2024-02-21T03:00:03;12.03;;;10.73;;
9720;SDS011;4899;42.644;23.366;2024-02-21T03:02:28;11.80;;;10.60;;
9720;SDS011;4899;42.644;23.366;2024-02-21T03:04:55;11.83;;;10.63;;
9720;SDS011;4899;42.644;23.366;2024-02-21T03:07:20;13.40;;;12.00;;
9720;SDS011;4899;42.644;23.366;2024-02-21T03:09:45;12.60;;;11.07;;
9720;SDS011;4899;42.644;23.366;2024-02-21T03:12:11;13.57;;;11.03;;
9720;SDS011;4899;42.644;23.366;2024-02-21T03:14:36;12.50;;;11.20;;
9720;SDS011;4899;42.644;23.366;2024-02-21T03:17:02;11.00;;;9.90;;
9720;SDS011;4899;42.644;23.366;2024-02-21T03:19:27;12.57;;;10.87;;
9720;SDS011;4899;42.644;23.366;2024-02-21T03:21:53;10.83;;;9.83;;
9720;SDS011;4899;42.644;23.366;2024-02-21T03:24:18;11.70;;;10.53;;
9720;SDS011;4899;42.644;23.366;2024-02-21T03:26:44;10.43;;;9.43;;
9720;SDS011;4899;42.644;23.366;2024-02-21T03:29:09;10.20;;;9.23;;
9720;SDS011;4899;42.644;23.366;2024-02-21T03:31:35;10.93;;;9.80;;
9720;SDS011;4899;42.644;23.366;2024-02-21T03:34:00;11.07;;;9.77;;
9720;SDS011;4899;42.644;23.366;2024-02-21T03:36:25;10.73;;;9.63;;
9720;SDS011;4899;42.644;23.366;2024-02-21T03:38:51;12.93;;;11.13;;
9720;SDS011;4899;42.644;23.366;2024-02-21T03:41:16;11.30;;;10.00;;
9720;SDS011;4899;42.644;23.366;2024-02-21T03:43:41;11.63;;;10.10;;
9720;SDS011;4899;42.644;23.366;2024-02-21T03:46:07;11.47;;;10.40;;
9720;SDS011;4899;42.644;23.366;2024-02-21T03:48:32;11.93;;;10.40;;
9720;SDS011;4899;42.644;23.366;2024-02-21T03:50:58;10.83;;;9.73;;
9720;SDS011;4899;42.644;23.366;2024-02-21T03:53:23;12.50;;;11.20;;
9720;SDS011;4899;42.644;23.366;2024-02-21T03:55:48;12.03;;;10.53;;
9720;SDS011;4899;42.644;23.366;2024-02-21T03:58:13;12.50;;;11.07;;
9720;SDS011;4899;42.644;23.366;2024-02-21T04:00:39;11.90;;;10.70;;
9720;SDS011;4899;42.644;23.366;2024-02-21T04:03:04;11.93;;;10.73;;
9720;SDS011;4899;42.644;23.366;2024-02-21T04:05:31;10.93;;;9.83;;
9720;SDS011;4899;42.644;23.366;2024-02-21T04:07:56;11.83;;;10.63;;
9720;SDS011;4899;42.644;23.366;2024-02-21T04:10:22;12.53;;;11.23;;
9720;SDS011;4899;42.644;23.366;2024-02-21T04:12:47;12.93;;;11.40;;
9720;SDS011;4899;42.644;23.366;2024-02-21T04:15:15;11.80;;;10.60;;
9720;SDS011;4899;42.644;23.366;2024-02-21T04:17:41;12.33;;;11.03;;
9720;SDS011;4899;42.644;23.366;2024-02-21T04:20:06;12.53;;;11.03;;
9720;SDS011;4899;42.644;23.366;2024-02-21T04:22:33;11.60;;;10.40;;
9720;SDS011;4899;42.644;23.366;2024-02-21T04:24:59;13.73;;;11.90;;
9720;SDS011;4899;42.644;23.366;2024-02-21T04:27:25;11.77;;;10.53;;
9720;SDS011;4899;42.644;23.366;2024-02-21T04:29:50;11.37;;;10.17;;
9720;SDS011;4899;42.644;23.366;2024-02-21T04:32:15;13.80;;;11.43;;
9720;SDS011;4899;42.644;23.366;2024-02-21T04:34:41;13.53;;;11.27;;
9720;SDS011;4899;42.644;23.366;2024-02-21T04:37:06;13.83;;;12.30;;
9720;SDS011;4899;42.644;23.366;2024-02-21T04:39:32;14.23;;;12.73;;
9720;SDS011;4899;42.644;23.366;2024-02-21T04:41:57;17.23;;;12.50;;
9720;SDS011;4899;42.644;23.366;2024-02-21T04:44:22;14.97;;;12.93;;
9720;SDS011;4899;42.644;23.366;2024-02-21T04:46:48;14.57;;;13.00;;
9720;SDS011;4899;42.644;23.366;2024-02-21T04:49:13;15.47;;;13.03;;
9720;SDS011;4899;42.644;23.366;2024-02-21T04:51:39;14.17;;;11.60;;
9720;SDS011;4899;42.644;23.366;2024-02-21T04:54:04;15.63;;;12.93;;
9720;SDS011;4899;42.644;23.366;2024-02-21T04:56:30;14.47;;;12.70;;
9720;SDS011;4899;42.644;23.366;2024-02-21T04:58:55;16.47;;;13.63;;
9720;SDS011;4899;42.644;23.366;2024-02-21T05:01:20;16.17;;;12.93;;
9720;SDS011;4899;42.644;23.366;2024-02-21T05:03:46;15.43;;;13.23;;
9720;SDS011;4899;42.644;23.366;2024-02-21T05:06:11;16.17;;;13.43;;
9720;SDS011;4899;42.644;23.366;2024-02-21T05:08:36;17.60;;;13.90;;
9720;SDS011;4899;42.644;23.366;2024-02-21T05:11:01;13.77;;;12.30;;
9720;SDS011;4899;42.644;23.366;2024-02-21T05:13:27;16.63;;;13.07;;
9720;SDS011;4899;42.644;23.366;2024-02-21T05:15:53;16.17;;;13.30;;
9720;SDS011;4899;42.644;23.366;2024-02-21T05:18:18;16.47;;;13.33;;
9720;SDS011;4899;42.644;23.366;2024-02-21T05:20:44;16.20;;;12.30;;
9720;SDS011;4899;42.644;23.366;2024-02-21T05:23:09;17.23;;;14.40;;
9720;SDS011;4899;42.644;23.366;2024-02-21T05:25:35;16.93;;;13.50;;
9720;SDS011;4899;42.644;23.366;2024-02-21T05:28:00;16.67;;;14.10;;
9720;SDS011;4899;42.644;23.366;2024-02-21T05:30:28;16.67;;;13.57;;
9720;SDS011;4899;42.644;23.366;2024-02-21T05:32:53;16.17;;;14.03;;
9720;SDS011;4899;42.644;23.366;2024-02-21T05:35:18;16.90;;;13.80;;
9720;SDS011;4899;42.644;23.366;2024-02-21T05:37:44;17.30;;;14.20;;
9720;SDS011;4899;42.644;23.366;2024-02-21T05:40:11;14.93;;;13.30;;
9720;SDS011;4899;42.644;23.366;2024-02-21T05:42:38;15.13;;;13.00;;
9720;SDS011;4899;42.644;23.366;2024-02-21T05:45:03;17.67;;;14.13;;
9720;SDS011;4899;42.644;23.366;2024-02-21T05:47:29;16.33;;;13.77;;
9720;SDS011;4899;42.644;23.366;2024-02-21T05:49:54;17.13;;;13.97;;
9720;SDS011;4899;42.644;23.366;2024-02-21T05:52:19;16.43;;;14.60;;
9720;SDS011;4899;42.644;23.366;2024-02-21T05:54:45;14.17;;;12.63;;
9720;SDS011;4899;42.644;23.366;2024-02-21T05:57:10;15.73;;;13.50;;
9720;SDS011;4899;42.644;23.366;2024-02-21T05:59:37;17.50;;;13.60;;
9720;SDS011;4899;42.644;23.366;2024-02-21T06:02:05;14.67;;;13.07;;
9720;SDS011;4899;42.644;23.366;2024-02-21T06:04:30;16.37;;;13.50;;
9720;SDS011;4899;42.644;23.366;2024-02-21T06:06:55;14.90;;;12.80;;
9720;SDS011;4899;42.644;23.366;2024-02-21T06:09:21;16.20;;;13.60;;
9720;SDS011;4899;42.644;23.366;2024-02-21T06:11:46;15.13;;;13.30;;
9720;SDS011;4899;42.644;23.366;2024-02-21T06:14:13;15.30;;;13.67;;
9720;SDS011;4899;42.644;23.366;2024-02-21T06:16:38;20.60;;;13.17;;
9720;SDS011;4899;42.644;23.366;2024-02-21T06:19:04;14.10;;;12.70;;
9720;SDS011;4899;42.644;23.366;2024-02-21T06:21:29;15.30;;;13.70;;
9720;SDS011;4899;42.644;23.366;2024-02-21T06:23:55;18.70;;;14.43;;
9720;SDS011;4899;42.644;23.366;2024-02-21T06:26:20;16.77;;;14.17;;
9720;SDS011;4899;42.644;23.366;2024-02-21T06:28:45;15.17;;;13.47;;
9720;SDS011;4899;42.644;23.366;2024-02-21T06:31:11;15.57;;;13.63;;
9720;SDS011;4899;42.644;23.366;2024-02-21T06:33:37;16.33;;;14.63;;
9720;SDS011;4899;42.644;23.366;2024-02-21T06:36:02;17.73;;;14.77;;
9720;SDS011;4899;42.644;23.366;2024-02-21T06:38:27;18.33;;;14.23;;
9720;SDS011;4899;42.644;23.366;2024-02-21T06:40:53;15.93;;;14.20;;
9720;SDS011;4899;42.644;23.366;2024-02-21T06:43:20;16.00;;;13.67;;
9720;SDS011;4899;42.644;23.366;2024-02-21T06:45:45;20.10;;;15.23;;
9720;SDS011;4899;42.644;23.366;2024-02-21T06:48:16;15.97;;;14.33;;
9720;SDS011;4899;42.644;23.366;2024-02-21T06:50:41;21.00;;;15.43;;
9720;SDS011;4899;42.644;23.366;2024-02-21T06:53:06;16.27;;;14.33;;
9720;SDS011;4899;42.644;23.366;2024-02-21T06:55:32;16.00;;;14.30;;
9720;SDS011;4899;42.644;23.366;2024-02-21T06:57:57;17.27;;;14.73;;
9720;SDS011;4899;42.644;23.366;2024-02-21T07:00:22;16.30;;;14.30;;
9720;SDS011;4899;42.644;23.366;2024-02-21T07:02:48;17.00;;;14.27;;
9720;SDS011;4899;42.644;23.366;2024-02-21T07:05:13;17.57;;;14.67;;
9720;SDS011;4899;42.644;23.366;2024-02-21T07:07:39;16.93;;;14.67;;
9720;SDS011;4899;42.644;23.366;2024-02-21T07:10:05;16.43;;;14.73;;
9720;SDS011;4899;42.644;23.366;2024-02-21T07:12:31;18.67;;;14.93;;
9720;SDS011;4899;42.644;23.366;2024-02-21T07:14:56;17.17;;;15.33;;
9720;SDS011;4899;42.644;23.366;2024-02-21T07:17:23;17.73;;;14.83;;
9720;SDS011;4899;42.644;23.366;2024-02-21T07:19:48;16.43;;;14.73;;
9720;SDS011;4899;42.644;23.366;2024-02-21T07:22:13;16.63;;;14.30;;
9720;SDS011;4899;42.644;23.366;2024-02-21T07:24:39;16.43;;;14.50;;
9720;SDS011;4899;42.644;23.366;2024-02-21T07:27:04;15.80;;;13.87;;
9720;SDS011;4899;42.644;23.366;2024-02-21T07:29:29;16.60;;;14.33;;
9720;SDS011;4899;42.644;23.366;2024-02-21T07:31:55;16.00;;;13.63;;
9720;SDS011;4899;42.644;23.366;2024-02-21T07:34:20;17.70;;;15.73;;
9720;SDS011;4899;42.644;23.366;2024-02-21T07:36:46;16.63;;;13.63;;
9720;SDS011;4899;42.644;23.366;2024-02-21T07:39:11;18.47;;;14.83;;
9720;SDS011;4899;42.644;23.366;2024-02-21T07:41:37;19.03;;;16.57;;
9720;SDS011;4899;42.644;23.366;2024-02-21T07:44:04;16.03;;;14.33;;
9720;SDS011;4899;42.644;23.366;2024-02-21T07:46:29;19.23;;;15.63;;
9720;SDS011;4899;42.644;23.366;2024-02-21T07:48:54;17.03;;;15.23;;
9720;SDS011;4899;42.644;23.366;2024-02-21T07:51:20;18.50;;;15.70;;
9720;SDS011;4899;42.644;23.366;2024-02-21T07:53:45;16.50;;;14.80;;
9720;SDS011;4899;42.644;23.366;2024-02-21T07:56:14;17.87;;;15.13;;
9720;SDS011;4899;42.644;23.366;2024-02-21T07:58:40;17.53;;;13.93;;
9720;SDS011;4899;42.644;23.366;2024-02-21T08:01:06;15.80;;;13.97;;
9720;SDS011;4899;42.644;23.366;2024-02-21T08:03:31;16.33;;;14.47;;
9720;SDS011;4899;42.644;23.366;2024-02-21T08:05:56;16.17;;;14.47;;
9720;SDS011;4899;42.644;23.366;2024-02-21T08:08:22;17.10;;;14.40;;
9720;SDS011;4899;42.644;23.366;2024-02-21T08:10:50;17.67;;;14.63;;
9720;SDS011;4899;42.644;23.366;2024-02-21T08:13:15;16.47;;;14.77;;
9720;SDS011;4899;42.644;23.366;2024-02-21T08:15:41;18.03;;;15.07;;
9720;SDS011;4899;42.644;23.366;2024-02-21T08:18:07;17.03;;;15.23;;
9720;SDS011;4899;42.644;23.366;2024-02-21T08:20:32;15.87;;;13.83;;
9720;SDS011;4899;42.644;23.366;2024-02-21T08:22:57;17.20;;;14.63;;
9720;SDS011;4899;42.644;23.366;2024-02-21T08:25:23;15.57;;;13.93;;
9720;SDS011;4899;42.644;23.366;2024-02-21T08:27:48;16.13;;;14.47;;
9720;SDS011;4899;42.644;23.366;2024-02-21T08:30:13;14.47;;;12.97;;
9720;SDS011;4899;42.644;23.366;2024-02-21T08:32:39;17.30;;;13.83;;
9720;SDS011;4899;42.644;23.366;2024-02-21T08:35:04;15.37;;;13.77;;
9720;SDS011;4899;42.644;23.366;2024-02-21T08:37:30;16.87;;;13.77;;
9720;SDS011;4899;42.644;23.366;2024-02-21T08:39:55;15.43;;;13.73;;
9720;SDS011;4899;42.644;23.366;2024-02-21T08:42:21;16.20;;;13.73;;
9720;SDS011;4899;42.644;23.366;2024-02-21T08:44:46;15.40;;;13.90;;
9720;SDS011;4899;42.644;23.366;2024-02-21T08:47:11;15.00;;;13.50;;
9720;SDS011;4899;42.644;23.366;2024-02-21T08:49:37;15.17;;;13.67;;
9720;SDS011;4899;42.644;23.366;2024-02-21T08:52:02;13.67;;;12.27;;
9720;SDS011;4899;42.644;23.366;2024-02-21T08:54:28;14.20;;;12.80;;
9720;SDS011;4899;42.644;23.366;2024-02-21T08:56:53;13.90;;;11.57;;
9720;SDS011;4899;42.644;23.366;2024-02-21T08:59:19;13.50;;;12.10;;
9720;SDS011;4899;42.644;23.366;2024-02-21T09:01:44;12.70;;;11.40;;
9720;SDS011;4899;42.644;23.366;2024-02-21T09:04:10;12.93;;;11.53;;
9720;SDS011;4899;42.644;23.366;2024-02-21T09:06:35;12.70;;;11.40;;
9720;SDS011;4899;42.644;23.366;2024-02-21T09:09:04;12.47;;;11.17;;
9720;SDS011;4899;42.644;23.366;2024-02-21T09:11:29;11.93;;;10.07;;
9720;SDS011;4899;42.644;23.366;2024-02-21T09:13:54;13.93;;;10.00;;
9720;SDS011;4899;42.644;23.366;2024-02-21T09:16:20;10.90;;;9.90;;
9720;SDS011;4899;42.644;23.366;2024-02-21T09:18:45;11.27;;;10.13;;
9720;SDS011;4899;42.644;23.366;2024-02-21T09:21:11;12.77;;;11.47;;
9720;SDS011;4899;42.644;23.366;2024-02-21T09:23:37;12.13;;;10.93;;
9720;SDS011;4899;42.644;23.366;2024-02-21T09:26:02;12.13;;;10.90;;
9720;SDS011;4899;42.644;23.366;2024-02-21T09:28:29;11.50;;;10.30;;
9720;SDS011;4899;42.644;23.366;2024-02-21T09:30:54;11.83;;;10.63;;
9720;SDS011;4899;42.644;23.366;2024-02-21T09:33:20;12.83;;;11.53;;
9720;SDS011;4899;42.644;23.366;2024-02-21T09:35:45;13.30;;;12.10;;
9720;SDS011;4899;42.644;23.366;2024-02-21T09:38:10;12.47;;;11.17;;
9720;SDS011;4899;42.644;23.366;2024-02-21T09:40:36;13.43;;;12.13;;
9720;SDS011;4899;42.644;23.366;2024-02-21T09:43:04;14.17;;;12.77;;
9720;SDS011;4899;42.644;23.366;2024-02-21T09:45:32;14.30;;;13.00;;
9720;SDS011;4899;42.644;23.366;2024-02-21T09:48:12;13.80;;;12.40;;
9720;SDS011;4899;42.644;23.366;2024-02-21T09:50:40;12.13;;;10.57;;
9720;SDS011;4899;42.644;23.366;2024-02-21T09:53:06;13.17;;;11.77;;
9720;SDS011;4899;42.644;23.366;2024-02-21T09:55:32;13.63;;;12.23;;
9720;SDS011;4899;42.644;23.366;2024-02-21T09:57:59;13.00;;;11.73;;
9720;SDS011;4899;42.644;23.366;2024-02-21T10:00:25;12.30;;;11.17;;
9720;SDS011;4899;42.644;23.366;2024-02-21T10:02:51;14.53;;;11.23;;
9720;SDS011;4899;42.644;23.366;2024-02-21T10:05:16;10.83;;;9.73;;
9720;SDS011;4899;42.644;23.366;2024-02-21T10:07:42;11.50;;;10.30;;
9720;SDS011;4899;42.644;23.366;2024-02-21T10:10:08;11.10;;;10.10;;
9720;SDS011;4899;42.644;23.366;2024-02-21T10:12:33;11.10;;;9.00;;
9720;SDS011;4899;42.644;23.366;2024-02-21T10:15:02;9.70;;;8.80;;
9720;SDS011;4899;42.644;23.366;2024-02-21T10:17:28;9.63;;;8.73;;
9720;SDS011;4899;42.644;23.366;2024-02-21T10:19:53;10.33;;;9.30;;
9720;SDS011;4899;42.644;23.366;2024-02-21T10:22:19;10.10;;;9.20;;
9720;SDS011;4899;42.644;23.366;2024-02-21T10:24:46;10.00;;;9.00;;
9720;SDS011;4899;42.644;23.366;2024-02-21T10:27:11;11.53;;;10.00;;
9720;SDS011;4899;42.644;23.366;2024-02-21T10:29:37;10.10;;;9.20;;
9720;SDS011;4899;42.644;23.366;2024-02-21T10:32:12;10.47;;;9.37;;
9720;SDS011;4899;42.644;23.366;2024-02-21T10:34:38;11.03;;;9.97;;
9720;SDS011;4899;42.644;23.366;2024-02-21T10:37:04;11.13;;;10.13;;
9720;SDS011;4899;42.644;23.366;2024-02-21T10:39:33;11.63;;;10.47;;
9720;SDS011;4899;42.644;23.366;2024-02-21T10:41:59;10.83;;;9.83;;
9720;SDS011;4899;42.644;23.366;2024-02-21T10:44:25;9.53;;;8.60;;
9720;SDS011;4899;42.644;23.366;2024-02-21T10:46:51;9.37;;;8.47;;
9720;SDS011;4899;42.644;23.366;2024-02-21T10:49:20;9.17;;;8.27;;
9720;SDS011;4899;42.644;23.366;2024-02-21T10:51:47;9.60;;;8.73;;
9720;SDS011;4899;42.644;23.366;2024-02-21T10:56:54;8.90;;;8.20;;
9720;SDS011;4899;42.644;23.366;2024-02-21T10:59:21;8.47;;;7.47;;
9720;SDS011;4899;42.644;23.366;2024-02-21T11:01:47;7.60;;;7.00;;
9720;SDS011;4899;42.644;23.366;2024-02-21T11:04:12;7.53;;;6.83;;
9720;SDS011;4899;42.644;23.366;2024-02-21T11:06:38;7.47;;;6.77;;
9720;SDS011;4899;42.644;23.366;2024-02-21T11:09:11;6.93;;;6.20;;
9720;SDS011;4899;42.644;23.366;2024-02-21T11:11:40;6.30;;;5.70;;
9720;SDS011;4899;42.644;23.366;2024-02-21T11:16:34;6.57;;;5.97;;
9720;SDS011;4899;42.644;23.366;2024-02-21T11:19:04;7.03;;;6.43;;
9720;SDS011;4899;42.644;23.366;2024-02-21T11:21:32;7.10;;;5.87;;
9720;SDS011;4899;42.644;23.366;2024-02-21T11:23:58;6.60;;;6.00;;
9720;SDS011;4899;42.644;23.366;2024-02-21T11:26:24;6.57;;;5.93;;
9720;SDS011;4899;42.644;23.366;2024-02-21T11:28:59;6.60;;;6.00;;
9720;SDS011;4899;42.644;23.366;2024-02-21T11:31:25;5.60;;;5.10;;
9720;SDS011;4899;42.644;23.366;2024-02-21T11:33:52;5.67;;;4.97;;
9720;SDS011;4899;42.644;23.366;2024-02-21T11:36:26;4.50;;;4.20;;
9720;SDS011;4899;42.644;23.366;2024-02-21T11:38:52;5.37;;;4.93;;
9720;SDS011;4899;42.644;23.366;2024-02-21T11:41:20;6.03;;;5.53;;
9720;SDS011;4899;42.644;23.366;2024-02-21T11:43:46;5.30;;;4.80;;
9720;SDS011;4899;42.644;23.366;2024-02-21T11:46:11;5.70;;;5.20;;
9720;SDS011;4899;42.644;23.366;2024-02-21T11:48:37;5.23;;;4.83;;
9720;SDS011;4899;42.644;23.366;2024-02-21T11:51:03;5.07;;;4.57;;
9720;SDS011;4899;42.644;23.366;2024-02-21T11:53:30;5.67;;;5.00;;
9720;SDS011;4899;42.644;23.366;2024-02-21T11:55:56;5.60;;;4.73;;
9720;SDS011;4899;42.644;23.366;2024-02-21T11:58:22;5.97;;;5.17;;
9720;SDS011;4899;42.644;23.366;2024-02-21T12:00:47;4.87;;;4.47;;
9720;SDS011;4899;42.644;23.366;2024-02-21T12:03:13;5.27;;;4.80;;
9720;SDS011;4899;42.644;23.366;2024-02-21T12:05:38;4.70;;;4.30;;
9720;SDS011;4899;42.644;23.366;2024-02-21T12:08:04;4.90;;;4.50;;
9720;SDS011;4899;42.644;23.366;2024-02-21T12:10:29;4.57;;;4.27;;
9720;SDS011;4899;42.644;23.366;2024-02-21T12:13:04;8.00;;;4.83;;
9720;SDS011;4899;42.644;23.366;2024-02-21T12:15:30;5.50;;;4.90;;
9720;SDS011;4899;42.644;23.366;2024-02-21T12:17:56;5.30;;;4.80;;
9720;SDS011;4899;42.644;23.366;2024-02-21T12:20:21;5.40;;;4.83;;
9720;SDS011;4899;42.644;23.366;2024-02-21T12:22:48;5.53;;;4.60;;
9720;SDS011;4899;42.644;23.366;2024-02-21T12:25:17;5.13;;;4.70;;
9720;SDS011;4899;42.644;23.366;2024-02-21T12:27:47;5.47;;;4.90;;
9720;SDS011;4899;42.644;23.366;2024-02-21T12:30:14;4.97;;;4.47;;
9720;SDS011;4899;42.644;23.366;2024-02-21T12:32:39;5.27;;;4.87;;
9720;SDS011;4899;42.644;23.366;2024-02-21T12:35:06;5.20;;;4.70;;
9720;SDS011;4899;42.644;23.366;2024-02-21T12:37:31;5.73;;;5.23;;
9720;SDS011;4899;42.644;23.366;2024-02-21T12:39:58;6.10;;;5.50;;
9720;SDS011;4899;42.644;23.366;2024-02-21T12:42:23;5.40;;;4.90;;
9720;SDS011;4899;42.644;23.366;2024-02-21T12:44:48;5.20;;;4.80;;
9720;SDS011;4899;42.644;23.366;2024-02-21T12:47:14;6.70;;;5.70;;
9720;SDS011;4899;42.644;23.366;2024-02-21T12:49:39;6.17;;;4.77;;
9720;SDS011;4899;42.644;23.366;2024-02-21T12:52:05;4.90;;;4.50;;
9720;SDS011;4899;42.644;23.366;2024-02-21T12:54:30;5.97;;;5.47;;
9720;SDS011;4899;42.644;23.366;2024-02-21T12:56:56;5.30;;;4.80;;
9720;SDS011;4899;42.644;23.366;2024-02-21T12:59:22;4.93;;;4.43;;
9720;SDS011;4899;42.644;23.366;2024-02-21T13:01:48;5.30;;;4.83;;
9720;SDS011;4899;42.644;23.366;2024-02-21T13:04:13;5.80;;;5.00;;
9720;SDS011;4899;42.644;23.366;2024-02-21T13:06:38;5.17;;;4.67;;
9720;SDS011;4899;42.644;23.366;2024-02-21T13:09:03;5.40;;;5.00;;
9720;SDS011;4899;42.644;23.366;2024-02-21T13:11:33;5.30;;;4.70;;
9720;SDS011;4899;42.644;23.366;2024-02-21T13:13:59;5.73;;;5.20;;
9720;SDS011;4899;42.644;23.366;2024-02-21T13:16:24;6.20;;;5.60;;
9720;SDS011;4899;42.644;23.366;2024-02-21T13:18:51;6.17;;;5.67;;
9720;SDS011;4899;42.644;23.366;2024-02-21T13:21:16;7.53;;;6.83;;
9720;SDS011;4899;42.644;23.366;2024-02-21T13:23:42;7.33;;;6.63;;
9720;SDS011;4899;42.644;23.366;2024-02-21T13:26:09;7.70;;;6.90;;
9720;SDS011;4899;42.644;23.366;2024-02-21T13:28:35;6.50;;;5.90;;
9720;SDS011;4899;42.644;23.366;2024-02-21T13:31:00;7.20;;;6.47;;
9720;SDS011;4899;42.644;23.366;2024-02-21T13:33:25;8.47;;;7.13;;
9720;SDS011;4899;42.644;23.366;2024-02-21T13:35:51;7.90;;;7.00;;
9720;SDS011;4899;42.644;23.366;2024-02-21T13:38:16;8.10;;;6.77;;
9720;SDS011;4899;42.644;23.366;2024-02-21T13:40:43;7.33;;;6.63;;
9720;SDS011;4899;42.644;23.366;2024-02-21T13:43:09;6.83;;;6.17;;
9720;SDS011;4899;42.644;23.366;2024-02-21T13:45:35;8.23;;;7.43;;
9720;SDS011;4899;42.644;23.366;2024-02-21T13:48:00;7.37;;;6.77;;
9720;SDS011;4899;42.644;23.366;2024-02-21T13:50:29;5.90;;;5.40;;
9720;SDS011;4899;42.644;23.366;2024-02-21T13:52:54;6.60;;;5.90;;
9720;SDS011;4899;42.644;23.366;2024-02-21T13:55:20;5.97;;;5.43;;
9720;SDS011;4899;42.644;23.366;2024-02-21T13:57:47;5.67;;;5.13;;
9720;SDS011;4899;42.644;23.366;2024-02-21T14:00:12;5.13;;;4.50;;
9720;SDS011;4899;42.644;23.366;2024-02-21T14:02:38;7.37;;;5.60;;
9720;SDS011;4899;42.644;23.366;2024-02-21T14:05:04;5.50;;;5.00;;
9720;SDS011;4899;42.644;23.366;2024-02-21T14:07:31;6.40;;;5.70;;
9720;SDS011;4899;42.644;23.366;2024-02-21T14:09:56;5.90;;;5.30;;
9720;SDS011;4899;42.644;23.366;2024-02-21T14:12:21;6.87;;;6.27;;
9720;SDS011;4899;42.644;23.366;2024-02-21T14:14:47;7.57;;;6.77;;
9720;SDS011;4899;42.644;23.366;2024-02-21T14:17:12;7.10;;;6.50;;
9720;SDS011;4899;42.644;23.366;2024-02-21T14:19:38;13.13;;;6.90;;
9720;SDS011;4899;42.644;23.366;2024-02-21T14:22:03;8.80;;;7.40;;
9720;SDS011;4899;42.644;23.366;2024-02-21T14:24:28;9.53;;;6.27;;
9720;SDS011;4899;42.644;23.366;2024-02-21T14:26:54;8.07;;;6.53;;
9720;SDS011;4899;42.644;23.366;2024-02-21T14:29:20;7.23;;;6.53;;
9720;SDS011;4899;42.644;23.366;2024-02-21T14:31:46;5.67;;;5.17;;
9720;SDS011;4899;42.644;23.366;2024-02-21T14:34:11;6.50;;;5.80;;
9720;SDS011;4899;42.644;23.366;2024-02-21T14:36:37;6.47;;;4.97;;
9720;SDS011;4899;42.644;23.366;2024-02-21T14:39:02;5.83;;;5.27;;
9720;SDS011;4899;42.644;23.366;2024-02-21T14:41:29;5.90;;;5.30;;
9720;SDS011;4899;42.644;23.366;2024-02-21T14:43:55;7.03;;;5.47;;